Time;durP1;ratioP1;P1;durP2;ratioP2;P2;SDS_P1;SDS_P2;PMS_P1;PMS_P2;Temp;Humidity;BMP_temperature;BMP_pressure;BME280_temperature;BME280_humidity;BME280_pressure;Samples;Min_cycle;Max_cycle;Signal;HPM_P1;HPM_P2
2021/08/13 00:01:58;;;;;;;13.33;9.97;;;19.10;1.00;;;;;;5064231;28;20926;-83
2021/08/13 00:04:26;;;;;;;12.00;10.60;;;19.10;1.00;;;;;;5064355;28;20485;-84
2021/08/13 00:06:54;;;;;;;11.70;9.60;;;19.00;1.00;;;;;;5082787;28;20476;-85
2021/08/13 00:09:23;;;;;;;10.00;8.47;;;19.00;1.00;;;;;;5082407;28;20437;-84
2021/08/13 00:11:51;;;;;;;15.67;10.87;;;19.00;1.00;;;;;;5064527;28;20480;-82
2021/08/13 00:14:19;;;;;;;13.03;8.60;;;18.90;1.00;;;;;;5063702;28;20442;-83
2021/08/13 00:16:47;;;;;;;10.13;8.67;;;18.90;1.00;;;;;;5080550;28;20491;-82
2021/08/13 00:19:17;;;;;;;10.97;9.87;;;18.90;1.00;;;;;;5064228;28;20513;-85
2021/08/13 00:21:45;;;;;;;8.17;7.47;;;18.90;1.00;;;;;;5063373;28;20446;-85
2021/08/13 00:24:14;;;;;;;10.30;9.30;;;18.80;1.00;;;;;;5063643;28;20463;-84
2021/08/13 00:26:43;;;;;;;10.60;8.43;;;18.80;1.00;;;;;;5063334;28;20969;-84
2021/08/13 00:29:11;;;;;;;11.80;8.23;;;18.80;1.00;;;;;;5081754;28;20448;-84
2021/08/13 00:31:39;;;;;;;9.07;8.17;;;18.80;1.00;;;;;;5063876;28;20463;-83
2021/08/13 00:34:08;;;;;;;9.93;8.90;;;18.80;1.00;;;;;;5064025;28;20413;-85
2021/08/13 00:36:39;;;;;;;8.83;7.97;;;18.80;1.00;;;;;;5063563;28;20442;-83
2021/08/13 00:39:07;;;;;;;10.00;8.80;;;18.90;1.00;;;;;;5081587;28;20443;-84
2021/08/13 00:41:36;;;;;;;9.17;8.33;;;19.00;1.00;;;;;;5064158;28;20409;-84
2021/08/13 00:44:06;;;;;;;8.20;7.27;;;18.90;1.00;;;;;;5064674;28;20409;-83
2021/08/13 00:46:34;;;;;;;9.77;7.87;;;18.90;1.00;;;;;;5064069;28;20512;-84
2021/08/13 00:49:25;;;;;;;9.30;8.40;;;18.90;1.00;;;;;;5080685;28;20480;-85
2021/08/13 00:52:15;;;;;;;9.33;8.47;;;18.90;1.00;;;;;;5083448;28;20442;-84
2021/08/13 00:54:45;;;;;;;9.73;8.83;;;19.00;1.00;;;;;;5069736;28;20420;-83
2021/08/13 00:57:15;;;;;;;8.70;7.57;;;18.90;1.00;;;;;;5073681;28;20808;-81
2021/08/13 01:00:01;;;;;;;10.33;8.17;;;18.90;1.00;;;;;;5094892;28;20421;-81
2021/08/13 01:02:41;;;;;;;14.40;10.57;;;18.90;1.00;;;;;;5096375;28;20389;-82
2021/08/13 01:05:16;;;;;;;8.50;7.70;;;18.90;1.00;;;;;;5078831;28;20422;-80
2021/08/13 01:07:45;;;;;;;12.70;8.83;;;18.90;1.00;;;;;;5071962;28;20421;-83
2021/08/13 01:10:16;;;;;;;8.60;7.43;;;18.90;1.00;;;;;;5063482;28;20441;-83
2021/08/13 01:12:57;;;;;;;9.80;8.47;;;18.90;1.00;;;;;;5063755;28;20421;-83
2021/08/13 01:15:32;;;;;;;10.70;7.10;;;18.90;1.00;;;;;;5065797;28;20426;-80
2021/08/13 01:18:07;;;;;;;11.80;7.90;;;18.90;1.00;;;;;;5081630;28;20441;-83
2021/08/13 01:21:14;;;;;;;10.00;8.43;;;18.80;1.00;;;;;;5063192;28;21101;-83
2021/08/13 01:23:52;;;;;;;8.60;7.70;;;18.80;1.00;;;;;;5063669;28;20413;-83
2021/08/13 01:26:24;;;;;;;9.33;8.43;;;18.90;1.00;;;;;;5063355;28;20430;-84
2021/08/13 01:29:02;;;;;;;10.23;9.07;;;18.80;1.00;;;;;;5063385;28;20470;-84
2021/08/13 01:31:39;;;;;;;9.50;8.60;;;18.80;1.00;;;;;;5063584;28;20478;-84
2021/08/13 01:34:11;;;;;;;8.43;7.63;;;18.90;1.00;;;;;;5064196;28;20979;-84
2021/08/13 01:36:41;;;;;;;8.53;7.63;;;18.80;1.00;;;;;;5084467;28;20404;-84
2021/08/13 01:39:10;;;;;;;9.50;8.53;;;18.80;1.00;;;;;;5064257;28;20429;-83
2021/08/13 01:41:41;;;;;;;9.67;8.67;;;18.90;1.00;;;;;;5069596;28;20421;-80
2021/08/13 01:44:13;;;;;;;11.07;8.73;;;18.80;1.00;;;;;;5078565;28;20388;-82
2021/08/13 01:46:45;;;;;;;12.80;8.50;;;18.80;1.00;;;;;;5095875;28;20404;-80
2021/08/13 01:49:17;;;;;;;11.37;8.60;;;18.80;1.00;;;;;;5079395;28;20412;-80
2021/08/13 01:51:48;;;;;;;9.60;8.50;;;18.80;1.00;;;;;;5079214;28;20547;-80
2021/08/13 01:54:17;;;;;;;9.67;8.77;;;18.80;1.00;;;;;;5079343;28;20426;-80
2021/08/13 01:56:46;;;;;;;8.33;7.50;;;18.70;1.00;;;;;;5079181;28;20430;-79
2021/08/13 01:59:16;;;;;;;11.90;8.87;;;18.70;1.00;;;;;;5079256;28;20416;-79
2021/08/13 02:01:46;;;;;;;10.80;8.70;;;18.70;1.00;;;;;;5075112;28;20446;-83
2021/08/13 02:04:19;;;;;;;11.67;9.57;;;18.60;1.00;;;;;;5063084;28;20413;-84
2021/08/13 02:06:53;;;;;;;10.50;9.40;;;18.60;1.00;;;;;;5063827;28;20437;-83
2021/08/13 02:09:21;;;;;;;9.80;8.83;;;18.60;1.00;;;;;;5062283;28;20981;-83
2021/08/13 02:11:53;;;;;;;10.63;9.30;;;18.60;1.00;;;;;;5062766;28;20432;-83
2021/08/13 02:14:21;;;;;;;11.10;9.07;;;18.50;1.00;;;;;;5089920;28;20381;-80
2021/08/13 02:16:54;;;;;;;10.63;9.63;;;18.60;1.00;;;;;;5077901;28;20420;-81
2021/08/13 02:19:35;;;;;;;9.33;8.33;;;18.60;1.00;;;;;;5072032;28;20471;-84
2021/08/13 02:22:05;;;;;;;9.50;8.17;;;18.60;1.00;;;;;;5077701;28;20427;-82
2021/08/13 02:24:33;;;;;;;10.30;9.07;;;18.70;1.00;;;;;;5059468;28;20497;-83
2021/08/13 02:27:09;;;;;;;8.70;7.90;;;18.70;1.00;;;;;;5058523;28;20470;-83
2021/08/13 02:29:38;;;;;;;9.87;8.60;;;18.70;1.00;;;;;;5058390;28;20462;-83
2021/08/13 02:32:10;;;;;;;10.23;9.17;;;18.70;1.00;;;;;;5059211;28;20501;-83
2021/08/13 02:34:40;;;;;;;9.30;7.67;;;18.70;1.00;;;;;;5058365;28;20495;-83
2021/08/13 02:37:20;;;;;;;9.50;8.60;;;18.70;1.00;;;;;;5058441;28;20452;-83
2021/08/13 02:39:52;;;;;;;12.73;9.47;;;18.60;1.00;;;;;;5061545;28;20849;-84
2021/08/13 02:42:27;;;;;;;9.57;8.57;;;18.60;1.00;;;;;;5079965;28;20423;-83
2021/08/13 02:45:00;;;;;;;12.27;7.70;;;18.70;1.00;;;;;;5062267;28;20530;-82
2021/08/13 02:47:30;;;;;;;9.50;8.33;;;18.80;1.00;;;;;;5061769;28;20624;-84
2021/08/13 02:50:07;;;;;;;8.90;8.10;;;18.80;1.00;;;;;;5062091;28;20516;-84
2021/08/13 02:52:43;;;;;;;9.07;8.23;;;18.80;1.00;;;;;;5062515;28;20500;-83
2021/08/13 02:55:15;;;;;;;9.60;8.60;;;18.80;1.00;;;;;;5061949;28;20438;-82
2021/08/13 02:57:47;;;;;;;9.10;8.20;;;18.70;1.00;;;;;;5061145;28;20437;-84
2021/08/13 03:00:16;;;;;;;9.03;8.13;;;18.60;1.00;;;;;;5061126;28;20433;-82
2021/08/13 03:02:48;;;;;;;8.73;7.23;;;18.60;1.00;;;;;;5060581;28;20454;-82
2021/08/13 03:05:22;;;;;;;11.00;8.93;;;18.50;1.00;;;;;;5060234;28;20409;-83
2021/08/13 03:07:52;;;;;;;9.43;8.53;;;18.50;1.00;;;;;;5060623;28;20430;-82
2021/08/13 03:10:21;;;;;;;9.10;8.20;;;18.50;1.00;;;;;;5060169;28;20417;-84
2021/08/13 03:12:50;;;;;;;8.00;7.30;;;18.60;1.00;;;;;;5059621;28;20451;-83
2021/08/13 03:15:19;;;;;;;9.37;8.43;;;18.60;1.00;;;;;;5059314;28;20409;-84
2021/08/13 03:17:49;;;;;;;9.93;8.90;;;18.60;1.00;;;;;;5077495;28;20476;-81
2021/08/13 03:20:20;;;;;;;9.07;8.17;;;18.60;1.00;;;;;;5061732;28;20537;-82
2021/08/13 03:23:02;;;;;;;11.73;9.00;;;18.70;1.00;;;;;;5063389;28;20889;-82
2021/08/13 03:25:32;;;;;;;10.50;7.93;;;18.70;1.00;;;;;;5062656;28;20450;-84
2021/08/13 03:28:06;;;;;;;9.23;8.03;;;18.70;1.00;;;;;;5062562;28;20456;-83
2021/08/13 03:30:39;;;;;;;8.73;7.93;;;18.60;1.00;;;;;;5063047;28;20419;-82
2021/08/13 03:33:12;;;;;;;14.67;9.17;;;18.60;1.00;;;;;;5062244;28;20438;-84
2021/08/13 03:35:43;;;;;;;9.07;8.13;;;18.60;1.00;;;;;;5062849;28;20441;-84
2021/08/13 03:38:12;;;;;;;8.73;7.83;;;18.60;1.00;;;;;;5062143;28;20440;-83
2021/08/13 03:40:42;;;;;;;9.93;8.03;;;18.60;1.00;;;;;;5079839;28;20398;-84
2021/08/13 03:43:12;;;;;;;8.83;8.07;;;18.70;1.00;;;;;;5062021;28;20417;-83
2021/08/13 03:45:40;;;;;;;9.67;8.80;;;18.70;1.00;;;;;;5079631;28;20393;-83
2021/08/13 03:48:09;;;;;;;11.10;9.03;;;18.70;1.00;;;;;;5062262;28;20493;-82
2021/08/13 03:50:37;;;;;;;9.80;8.97;;;18.70;1.00;;;;;;5062262;28;20443;-82
2021/08/13 03:53:07;;;;;;;9.50;8.30;;;18.80;1.00;;;;;;5062270;28;20448;-83
2021/08/13 03:55:36;;;;;;;9.10;8.30;;;18.90;1.00;;;;;;5063197;28;20466;-84
2021/08/13 03:58:04;;;;;;;9.87;8.03;;;19.00;1.00;;;;;;5063771;28;20448;-84
2021/08/13 04:00:33;;;;;;;9.93;8.73;;;19.10;1.00;;;;;;5066536;28;20430;-82
2021/08/13 04:03:02;;;;;;;9.03;8.00;;;19.20;1.00;;;;;;5064648;28;20440;-83
2021/08/13 04:05:31;;;;;;;9.60;8.83;;;19.20;1.00;;;;;;5059674;28;20439;-82
2021/08/13 04:08:00;;;;;;;7.83;7.03;;;19.40;1.00;;;;;;5060416;28;20401;-82
2021/08/13 04:10:30;;;;;;;10.03;8.93;;;19.40;1.00;;;;;;5059545;28;20446;-81
2021/08/13 04:12:59;;;;;;;10.37;8.30;;;19.40;1.00;;;;;;5060891;28;20508;-82
2021/08/13 04:15:28;;;;;;;8.80;8.00;;;19.50;1.00;;;;;;5078130;28;20404;-83
2021/08/13 04:17:58;;;;;;;8.33;7.63;;;19.80;1.00;;;;;;5060706;28;20852;-83
2021/08/13 04:20:29;;;;;;;8.57;7.77;;;20.30;1.00;;;;;;5059323;28;20911;-81
2021/08/13 04:23:01;;;;;;;9.43;8.60;;;20.80;1.00;;;;;;5060013;28;20440;-82
2021/08/13 04:25:30;;;;;;;9.30;8.30;;;21.10;1.00;;;;;;5058975;28;20448;-83
2021/08/13 04:27:58;;;;;;;8.97;8.07;;;20.90;1.00;;;;;;5062066;28;20519;-83
2021/08/13 04:30:29;;;;;;;8.53;7.60;;;20.80;1.00;;;;;;5059653;28;20405;-82
2021/08/13 04:32:57;;;;;;;8.67;7.97;;;20.70;1.00;;;;;;5059476;28;20513;-81
2021/08/13 04:35:26;;;;;;;11.00;8.10;;;20.60;1.00;;;;;;5058452;28;20756;-82
2021/08/13 04:37:55;;;;;;;8.63;7.93;;;20.70;1.00;;;;;;5058530;28;20405;-82
2021/08/13 04:40:23;;;;;;;10.80;8.60;;;20.90;1.00;;;;;;5057830;28;20422;-81
2021/08/13 04:42:56;;;;;;;8.70;7.90;;;20.80;1.00;;;;;;5057956;28;20423;-82
2021/08/13 04:45:24;;;;;;;9.70;8.70;;;20.70;1.00;;;;;;5060475;28;20764;-81
2021/08/13 04:47:54;;;;;;;8.33;7.57;;;20.60;1.00;;;;;;5060487;28;20466;-81
2021/08/13 04:50:24;;;;;;;8.90;8.00;;;20.50;1.00;;;;;;5079017;28;20411;-80
2021/08/13 04:53:07;;;;;;;7.47;6.80;;;20.30;1.00;;;;;;5079480;28;20456;-81
2021/08/13 04:55:36;;;;;;;8.60;7.73;;;20.30;1.00;;;;;;5079484;28;20405;-81
2021/08/13 04:58:05;;;;;;;8.87;8.07;;;20.40;1.00;;;;;;5080547;28;20433;-81
2021/08/13 05:00:34;;;;;;;9.40;7.80;;;20.40;1.00;;;;;;5079817;28;20454;-80
2021/08/13 05:03:10;;;;;;;9.40;7.13;;;20.50;1.00;;;;;;5097897;28;20377;-80
2021/08/13 05:05:57;;;;;;;9.47;8.60;;;20.50;1.00;;;;;;5074436;28;20469;-82
2021/08/13 05:08:25;;;;;;;8.97;8.07;;;20.40;1.00;;;;;;5062463;28;20487;-81
2021/08/13 05:10:56;;;;;;;8.77;8.00;;;20.40;1.00;;;;;;5057122;28;20754;-81
2021/08/13 05:13:26;;;;;;;9.10;8.30;;;20.50;1.00;;;;;;5058712;28;20455;-82
2021/08/13 05:15:55;;;;;;;9.27;8.37;;;20.60;1.00;;;;;;5059632;28;20431;-81
2021/08/13 05:18:24;;;;;;;10.77;9.67;;;20.70;1.00;;;;;;5077068;28;20911;-82
2021/08/13 05:20:52;;;;;;;8.53;7.60;;;20.70;1.00;;;;;;5059919;28;20457;-81
2021/08/13 05:23:21;;;;;;;10.57;9.40;;;20.70;1.00;;;;;;5060710;28;20508;-82
2021/08/13 05:25:49;;;;;;;11.53;8.40;;;20.60;1.00;;;;;;5065027;28;20430;-79
2021/08/13 05:28:17;;;;;;;8.57;7.77;;;20.70;1.00;;;;;;5080059;28;20442;-79
2021/08/13 05:30:46;;;;;;;10.37;8.10;;;20.70;1.00;;;;;;5097408;28;20446;-79
2021/08/13 05:33:14;;;;;;;8.20;7.20;;;20.70;1.00;;;;;;5079936;28;20470;-79
2021/08/13 05:35:43;;;;;;;8.90;8.00;;;20.80;63.30;;;;;;5079898;28;20407;-79
2021/08/13 05:38:11;;;;;;;11.37;8.30;;;20.80;99.90;;;;;;5079516;28;20513;-78
2021/08/13 05:40:41;;;;;;;9.80;9.00;;;20.70;54.20;;;;;;5079327;28;20389;-79
2021/08/13 05:43:11;;;;;;;9.60;7.87;;;20.90;97.90;;;;;;5079032;28;20417;-79
2021/08/13 05:45:41;;;;;;;17.17;15.37;;;20.80;1.00;;;;;;5079880;28;20401;-79
2021/08/13 05:48:11;;;;;;;12.70;11.17;;;20.70;1.00;;;;;;5079607;28;20449;-80
2021/08/13 05:50:39;;;;;;;10.37;9.27;;;20.60;99.90;;;;;;5079717;28;20417;-79
2021/08/13 05:53:10;;;;;;;11.73;9.03;;;20.60;99.90;;;;;;5079651;28;20462;-81
2021/08/13 05:55:40;;;;;;;13.83;11.03;;;20.50;99.90;;;;;;5068768;28;20442;-81
2021/08/13 05:58:18;;;;;;;13.40;10.27;;;20.50;1.00;;;;;;5081554;28;20886;-81
2021/08/13 06:00:47;;;;;;;10.57;9.47;;;20.50;99.90;;;;;;5010236;28;20437;-84
2021/08/13 06:03:17;;;;;;;9.20;8.30;;;20.60;99.90;;;;;;4995319;28;20823;-81
2021/08/13 06:05:51;;;;;;;11.07;9.97;;;20.90;86.30;;;;;;4995453;28;20423;-83
2021/08/13 06:08:21;;;;;;;11.03;9.90;;;21.10;56.60;;;;;;4979662;28;20432;-81
2021/08/13 06:10:49;;;;;;;10.57;9.57;;;21.30;1.00;;;;;;4979545;28;20477;-83
2021/08/13 06:13:19;;;;;;;10.73;9.73;;;21.50;1.00;;;;;;4981554;28;20896;-80
2021/08/13 06:15:49;;;;;;;9.80;8.90;;;21.60;1.00;;;;;;4999568;28;20440;-83
2021/08/13 06:18:19;;;;;;;10.83;9.80;;;21.70;1.00;;;;;;5000093;28;20416;-84
2021/08/13 06:20:47;;;;;;;9.90;9.00;;;21.80;1.00;;;;;;4983326;28;20842;-80
2021/08/13 06:23:20;;;;;;;10.10;8.80;;;22.00;1.00;;;;;;4988494;28;20855;-80
2021/08/13 06:25:49;;;;;;;10.97;9.87;;;22.10;1.00;;;;;;5007375;28;20417;-81
2021/08/13 06:28:18;;;;;;;10.23;8.73;;;22.30;1.00;;;;;;5007696;28;20465;-83
2021/08/13 06:30:47;;;;;;;12.20;9.90;;;22.50;1.00;;;;;;5004001;28;20436;-80
2021/08/13 06:33:19;;;;;;;9.57;8.23;;;22.70;1.00;;;;;;4985858;28;20541;-83
2021/08/13 06:35:48;;;;;;;13.93;9.40;;;22.80;1.00;;;;;;5000384;28;20434;-81
2021/08/13 06:38:17;;;;;;;10.60;9.50;;;22.80;1.00;;;;;;5004388;28;20517;-79
2021/08/13 06:40:47;;;;;;;13.77;8.43;;;23.10;1.00;;;;;;4991095;28;20426;-83
2021/08/13 06:43:19;;;;;;;15.27;9.97;;;23.30;1.00;;;;;;5003235;28;20413;-84
2021/08/13 06:45:55;;;;;;;10.90;9.80;;;23.50;1.00;;;;;;5018990;28;20424;-83
2021/08/13 06:48:28;;;;;;;9.90;8.97;;;23.70;1.00;;;;;;5019505;28;20431;-82
2021/08/13 06:50:57;;;;;;;10.70;9.63;;;23.80;1.00;;;;;;4996795;28;20459;-81
2021/08/13 06:53:28;;;;;;;10.47;9.37;;;24.10;1.00;;;;;;4982967;28;20497;-82
2021/08/13 06:55:56;;;;;;;10.13;9.17;;;24.30;1.00;;;;;;5000376;28;20410;-79
2021/08/13 06:58:24;;;;;;;10.27;9.37;;;24.40;1.00;;;;;;5007084;28;20516;-79
2021/08/13 07:00:52;;;;;;;11.23;8.07;;;24.70;1.00;;;;;;5006520;28;20409;-80
2021/08/13 07:03:21;;;;;;;11.10;10.10;;;24.70;1.00;;;;;;5008770;28;20434;-79
2021/08/13 07:05:51;;;;;;;9.77;8.90;;;24.80;1.00;;;;;;4986019;28;20503;-82
2021/08/13 07:08:19;;;;;;;11.83;8.53;;;24.80;1.00;;;;;;5000819;28;20457;-82
2021/08/13 07:10:55;;;;;;;9.13;8.20;;;25.10;1.00;;;;;;4982460;28;20420;-82
2021/08/13 07:13:23;;;;;;;8.60;7.77;;;25.00;1.00;;;;;;4999460;28;21114;-82
2021/08/13 07:15:51;;;;;;;8.33;7.53;;;24.90;1.00;;;;;;4982481;28;20439;-81
2021/08/13 07:18:19;;;;;;;9.67;8.67;;;24.80;1.00;;;;;;4999825;28;20411;-79
2021/08/13 07:20:47;;;;;;;9.40;8.40;;;24.60;1.00;;;;;;4998981;28;20434;-82
2021/08/13 07:23:17;;;;;;;9.47;8.60;;;24.50;1.00;;;;;;4998775;28;20438;-81
2021/08/13 07:25:45;;;;;;;12.27;8.63;;;24.30;1.00;;;;;;4998901;28;20537;-81
2021/08/13 07:28:13;;;;;;;9.40;8.50;;;24.20;1.00;;;;;;4998862;28;20442;-79
2021/08/13 07:30:44;;;;;;;8.67;7.87;;;24.30;1.00;;;;;;4983077;28;20506;-80
2021/08/13 07:33:13;;;;;;;8.23;7.30;;;24.50;1.00;;;;;;4989596;28;20997;-81
2021/08/13 07:35:41;;;;;;;9.30;8.27;;;24.80;1.00;;;;;;5008035;28;20401;-79
2021/08/13 07:38:10;;;;;;;14.43;8.90;;;24.90;1.00;;;;;;5011506;28;20436;-81
2021/08/13 07:40:39;;;;;;;11.40;10.17;;;24.70;1.00;;;;;;5011229;28;20434;-79
2021/08/13 07:43:08;;;;;;;8.90;7.90;;;24.80;1.00;;;;;;5006060;28;20442;-81
2021/08/13 07:45:37;;;;;;;7.73;6.90;;;24.90;1.00;;;;;;4999193;28;20433;-81
2021/08/13 07:48:06;;;;;;;9.70;7.40;;;25.00;1.00;;;;;;4999380;28;20434;-80
2021/08/13 07:50:34;;;;;;;7.60;6.90;;;25.00;1.00;;;;;;4999016;28;20981;-81
2021/08/13 07:53:03;;;;;;;9.43;8.43;;;25.10;1.00;;;;;;5000989;28;20446;-79
2021/08/13 07:55:31;;;;;;;7.40;6.70;;;25.30;1.00;;;;;;5001165;28;20434;-79
2021/08/13 07:58:01;;;;;;;10.33;8.87;;;25.60;1.00;;;;;;5001461;28;20438;-80
2021/08/13 08:00:30;;;;;;;9.93;7.63;;;25.70;1.00;;;;;;4981460;28;20442;-80
2021/08/13 08:02:59;;;;;;;8.80;7.90;;;25.60;1.00;;;;;;5000114;28;20396;-81
2021/08/13 08:05:27;;;;;;;14.27;8.27;;;25.70;1.00;;;;;;4999699;28;20513;-79
2021/08/13 08:07:55;;;;;;;8.23;7.40;;;25.80;1.00;;;;;;4998940;28;20397;-81
2021/08/13 08:10:23;;;;;;;8.53;7.73;;;25.80;1.00;;;;;;4998345;28;20462;-82
2021/08/13 08:12:51;;;;;;;7.83;7.13;;;26.10;1.00;;;;;;5000879;28;20441;-82
2021/08/13 08:15:21;;;;;;;8.27;7.43;;;26.00;1.00;;;;;;5000260;28;20981;-81
2021/08/13 08:17:49;;;;;;;9.00;7.30;;;26.20;1.00;;;;;;4999016;28;20441;-81
2021/08/13 08:20:17;;;;;;;7.30;6.60;;;26.30;1.00;;;;;;4999122;28;20473;-81
2021/08/13 08:22:45;;;;;;;9.90;7.50;;;26.40;1.00;;;;;;4997821;28;20499;-80
2021/08/13 08:25:14;;;;;;;7.83;5.87;;;26.40;1.00;;;;;;4998538;28;20422;-80
2021/08/13 08:27:42;;;;;;;7.00;6.30;;;26.30;1.00;;;;;;4998085;28;20874;-82
2021/08/13 08:30:11;;;;;;;9.07;6.93;;;26.50;1.00;;;;;;4998485;28;20457;-81
2021/08/13 08:32:40;;;;;;;9.23;7.77;;;26.70;1.00;;;;;;4999748;28;20438;-83
2021/08/13 08:35:09;;;;;;;6.53;5.90;;;26.70;1.00;;;;;;4998088;28;20472;-81
2021/08/13 08:37:50;;;;;;;8.87;7.63;;;26.70;1.00;;;;;;4997282;28;20419;-82
2021/08/13 08:40:24;;;;;;;7.80;7.00;;;26.80;1.00;;;;;;4998122;28;20456;-81
2021/08/13 08:42:54;;;;;;;6.80;6.20;;;27.10;1.00;;;;;;4998982;28;20410;-81
2021/08/13 08:45:22;;;;;;;7.13;5.60;;;27.20;1.00;;;;;;4995318;28;20463;-81
2021/08/13 08:47:53;;;;;;;8.00;7.20;;;27.20;1.00;;;;;;4995797;28;20442;-81
2021/08/13 08:50:22;;;;;;;6.20;5.60;;;27.30;1.00;;;;;;4998084;28;20446;-81
2021/08/13 08:52:51;;;;;;;6.50;5.90;;;27.30;1.00;;;;;;4999042;28;20425;-80
2021/08/13 08:55:19;;;;;;;8.50;6.90;;;27.30;1.00;;;;;;4999242;28;20462;-79
2021/08/13 08:57:48;;;;;;;7.20;6.60;;;27.40;1.00;;;;;;4999045;28;20448;-82
2021/08/13 09:00:18;;;;;;;8.10;6.23;;;27.50;1.00;;;;;;4999268;28;20465;-81
2021/08/13 09:02:47;;;;;;;7.33;6.60;;;27.50;1.00;;;;;;5001448;28;20855;-80
2021/08/13 09:05:17;;;;;;;15.53;5.63;;;27.60;1.00;;;;;;5006864;28;20478;-83
2021/08/13 09:07:45;;;;;;;9.60;5.80;;;27.60;1.00;;;;;;5006704;28;20414;-80
2021/08/13 09:10:13;;;;;;;7.57;6.77;;;27.60;1.00;;;;;;5005941;28;20450;-80
2021/08/13 09:12:42;;;;;;;6.73;5.43;;;27.70;1.00;;;;;;5006874;28;20418;-79
2021/08/13 09:15:27;;;;;;;8.20;7.13;;;28.00;1.00;;;;;;5004631;28;20469;-80
2021/08/13 09:18:20;;;;;;;6.70;6.00;;;27.90;1.00;;;;;;5002681;28;20476;-84
2021/08/13 09:20:51;;;;;;;6.53;5.47;;;27.90;1.00;;;;;;4975956;28;20473;-81
2021/08/13 09:23:34;;;;;;;6.03;5.50;;;28.10;1.00;;;;;;4999264;28;20422;-83
2021/08/13 09:26:04;;;;;;;5.87;5.27;;;28.20;1.00;;;;;;5000133;28;20418;-85
2021/08/13 09:28:52;;;;;;;6.70;6.03;;;28.30;1.00;;;;;;4998733;28;20488;-81
2021/08/13 09:31:35;;;;;;;6.87;6.03;;;28.40;1.00;;;;;;4981867;28;20445;-82
2021/08/13 09:34:08;;;;;;;6.50;5.90;;;28.40;1.00;;;;;;4999907;28;20414;-81
2021/08/13 09:36:39;;;;;;;8.60;5.83;;;28.80;1.00;;;;;;4981613;28;20466;-85
2021/08/13 09:39:09;;;;;;;5.83;5.10;;;29.00;1.00;;;;;;4997118;28;20475;-84
2021/08/13 09:41:48;;;;;;;5.30;4.90;;;29.30;1.00;;;;;;4997528;28;20997;-81
2021/08/13 09:44:25;;;;;;;6.83;5.97;;;29.20;1.00;;;;;;4997876;28;20426;-83
2021/08/13 09:46:58;;;;;;;5.53;5.07;;;29.20;1.00;;;;;;5000971;28;20414;-83
2021/08/13 09:49:28;;;;;;;8.43;6.33;;;29.30;1.00;;;;;;5004871;28;20465;-84
2021/08/13 09:52:11;;;;;;;4.90;4.40;;;29.30;1.00;;;;;;5003513;28;20817;-83
2021/08/13 09:54:41;;;;;;;8.10;5.10;;;29.30;1.00;;;;;;5009223;28;20454;-84
2021/08/13 09:57:11;;;;;;;6.20;4.80;;;29.40;1.00;;;;;;5008687;28;20791;-83
2021/08/13 09:59:59;;;;;;;5.00;4.57;;;29.20;1.00;;;;;;4985533;28;20469;-81
2021/08/13 10:02:35;;;;;;;7.47;5.50;;;29.10;1.00;;;;;;5002559;28;20409;-79
2021/08/13 10:05:17;;;;;;;5.60;5.10;;;29.20;1.00;;;;;;5001259;28;20405;-79
2021/08/13 10:07:49;;;;;;;5.77;5.10;;;29.10;1.00;;;;;;4991407;28;20464;-82
2021/08/13 10:10:23;;;;;;;5.77;5.27;;;29.10;1.00;;;;;;5012150;28;20461;-80
2021/08/13 10:12:53;;;;;;;6.43;5.20;;;29.20;1.00;;;;;;4989656;28;20463;-81
2021/08/13 10:15:32;;;;;;;5.50;5.00;;;29.10;1.00;;;;;;5009718;28;20474;-83
2021/08/13 10:18:05;;;;;;;7.47;5.60;;;29.20;1.00;;;;;;4999686;28;20475;-80
2021/08/13 10:20:36;;;;;;;5.87;4.70;;;29.20;1.00;;;;;;4991180;28;21545;-80
2021/08/13 10:23:06;;;;;;;5.83;4.60;;;29.30;1.00;;;;;;4961161;28;20425;-81
2021/08/13 10:25:36;;;;;;;8.27;7.37;;;29.30;1.00;;;;;;4978072;28;20426;-82
2021/08/13 10:28:05;;;;;;;6.63;6.03;;;29.40;1.00;;;;;;4993269;28;20677;-81
2021/08/13 10:30:38;;;;;;;7.57;5.30;;;29.20;1.00;;;;;;4978773;28;20450;-81
2021/08/13 10:33:08;;;;;;;5.50;4.83;;;29.20;1.00;;;;;;5010149;28;20438;-82
2021/08/13 10:35:41;;;;;;;6.10;5.20;;;29.40;1.00;;;;;;4975066;28;20473;-81
2021/08/13 10:38:13;;;;;;;5.17;4.67;;;29.60;1.00;;;;;;4993864;28;20454;-82
2021/08/13 10:40:43;;;;;;;7.83;5.80;;;29.80;1.00;;;;;;4996403;28;20430;-81
2021/08/13 10:43:13;;;;;;;6.13;5.63;;;29.80;1.00;;;;;;5011898;28;20442;-85
2021/08/13 10:45:48;;;;;;;6.30;5.10;;;29.90;1.00;;;;;;4980942;28;20940;-82
2021/08/13 10:48:21;;;;;;;5.53;4.93;;;30.00;1.00;;;;;;4980718;28;20440;-83
2021/08/13 10:50:49;;;;;;;5.63;5.10;;;29.90;1.00;;;;;;4998289;28;20457;-83
2021/08/13 10:53:30;;;;;;;5.80;4.70;;;30.00;1.00;;;;;;5013838;28;20441;-83
2021/08/13 10:56:05;;;;;;;6.30;4.90;;;30.00;1.00;;;;;;4980543;28;20477;-85
2021/08/13 10:58:49;;;;;;;5.53;5.03;;;30.00;1.00;;;;;;4980785;28;20461;-81
2021/08/13 11:01:31;;;;;;;6.83;5.00;;;30.10;1.00;;;;;;4984233;28;20442;-80
2021/08/13 11:04:15;;;;;;;6.83;5.33;;;29.90;1.00;;;;;;4984903;28;20437;-83
2021/08/13 11:06:47;;;;;;;5.73;5.20;;;29.60;1.00;;;;;;5017028;28;20982;-81
2021/08/13 11:09:42;;;;;;;6.90;5.73;;;29.70;1.00;;;;;;5016900;28;20536;-82
2021/08/13 11:12:15;;;;;;;6.73;5.83;;;29.60;1.00;;;;;;4984023;28;20446;-82
2021/08/13 11:14:52;;;;;;;6.63;6.00;;;29.50;1.00;;;;;;4986946;28;20803;-82
2021/08/13 11:17:35;;;;;;;8.00;7.20;;;29.60;1.00;;;;;;4985964;28;20473;-83
2021/08/13 11:20:09;;;;;;;6.70;6.00;;;29.50;1.00;;;;;;4986354;28;20492;-84
2021/08/13 11:22:43;;;;;;;9.83;7.27;;;29.60;1.00;;;;;;4990878;28;20487;-80
2021/08/13 11:25:16;;;;;;;6.83;5.90;;;29.70;1.00;;;;;;4990524;28;20445;-82
2021/08/13 11:28:15;;;;;;;6.07;5.43;;;29.60;1.00;;;;;;5006982;28;20441;-81
2021/08/13 11:30:45;;;;;;;6.27;5.67;;;29.40;1.00;;;;;;5008040;28;20446;-81
2021/08/13 11:33:36;;;;;;;6.50;5.90;;;29.50;1.00;;;;;;5009879;28;20449;-82
2021/08/13 11:36:30;;;;;;;6.60;6.00;;;29.90;1.00;;;;;;4987956;28;20525;-81
2021/08/13 11:39:02;;;;;;;6.10;5.37;;;30.00;1.00;;;;;;4999544;28;20999;-81
2021/08/13 11:41:33;;;;;;;9.10;7.80;;;30.50;1.00;;;;;;4969423;28;20454;-82
2021/08/13 11:44:06;;;;;;;6.83;6.23;;;30.70;1.00;;;;;;4998681;28;20490;-81
2021/08/13 11:46:45;;;;;;;8.10;5.60;;;30.80;1.00;;;;;;5003846;28;20805;-81
2021/08/13 11:49:21;;;;;;;6.73;6.03;;;31.00;1.00;;;;;;4976886;28;20797;-82
2021/08/13 11:51:51;;;;;;;7.63;6.67;;;30.90;1.00;;;;;;5014045;28;20439;-84
2021/08/13 11:54:31;;;;;;;6.60;6.00;;;30.90;1.00;;;;;;5006125;28;20440;-83
2021/08/13 11:57:14;;;;;;;7.33;6.63;;;30.80;1.00;;;;;;5009116;28;20476;-84
2021/08/13 11:59:43;;;;;;;7.10;6.43;;;30.60;1.00;;;;;;5039143;22;21019;-67
2021/08/13 12:02:11;;;;;;;7.60;6.90;;;30.50;1.00;;;;;;5051382;28;20741;-68
2021/08/13 12:04:40;;;;;;;7.60;6.87;;;30.70;1.00;;;;;;5034660;28;20527;-69
2021/08/13 12:07:10;;;;;;;8.20;7.10;;;31.10;1.00;;;;;;5034093;28;20938;-69
2021/08/13 12:09:48;;;;;;;9.17;6.60;;;31.40;1.00;;;;;;5034380;28;20440;-68
2021/08/13 12:12:29;;;;;;;7.93;6.80;;;31.60;1.00;;;;;;5033711;28;20857;-68
2021/08/13 12:14:58;;;;;;;7.00;5.93;;;31.50;1.00;;;;;;5055395;28;20509;-67
2021/08/13 12:17:27;;;;;;;7.10;6.40;;;31.60;1.00;;;;;;5033744;28;20460;-67
2021/08/13 12:19:58;;;;;;;6.20;5.60;;;31.40;1.00;;;;;;5031597;28;20430;-68
2021/08/13 12:22:30;;;;;;;7.50;6.80;;;31.10;1.00;;;;;;5033366;28;20455;-69
2021/08/13 12:25:00;;;;;;;7.50;6.70;;;30.90;1.00;;;;;;5034035;28;20514;-68
2021/08/13 12:27:31;;;;;;;8.17;7.37;;;30.80;1.00;;;;;;5033484;28;20431;-68
2021/08/13 12:30:00;;;;;;;7.67;6.33;;;31.00;1.00;;;;;;5034142;28;20438;-68
2021/08/13 12:32:35;;;;;;;7.50;6.13;;;30.90;1.00;;;;;;5033582;28;20623;-68
2021/08/13 12:35:05;;;;;;;8.97;7.67;;;31.00;1.00;;;;;;5033498;28;20941;-70
2021/08/13 12:37:33;;;;;;;7.93;7.23;;;31.30;1.00;;;;;;5028364;28;20471;-68
2021/08/13 12:40:03;;;;;;;7.70;7.00;;;31.60;1.00;;;;;;5051674;28;20934;-69
2021/08/13 12:42:33;;;;;;;8.90;7.60;;;31.30;1.00;;;;;;5033230;28;20804;-69
2021/08/13 12:45:02;;;;;;;8.07;6.57;;;31.30;1.00;;;;;;5034061;28;20525;-69
2021/08/13 12:47:31;;;;;;;9.53;6.70;;;31.40;1.00;;;;;;5033802;28;20428;-69
2021/08/13 12:50:01;;;;;;;7.53;5.90;;;31.40;1.00;;;;;;5033603;28;20451;-68
2021/08/13 12:52:29;;;;;;;7.20;5.87;;;31.40;1.00;;;;;;5033676;28;20467;-68
2021/08/13 12:55:12;;;;;;;7.47;6.70;;;31.10;1.00;;;;;;5033175;28;20486;-72
2021/08/13 12:57:42;;;;;;;7.30;6.60;;;30.90;1.00;;;;;;5033662;28;21199;-71
2021/08/13 13:00:12;;;;;;;7.10;6.40;;;30.90;1.00;;;;;;5033431;28;20449;-67
2021/08/13 13:02:44;;;;;;;8.13;7.03;;;31.00;1.00;;;;;;5033844;28;21029;-68
2021/08/13 13:05:13;;;;;;;6.30;5.80;;;31.10;1.00;;;;;;5033035;28;21022;-68
2021/08/13 13:07:42;;;;;;;6.90;6.20;;;30.90;1.00;;;;;;5033647;28;20428;-68
2021/08/13 13:10:18;;;;;;;8.13;7.33;;;31.10;1.00;;;;;;5033072;28;20447;-68
2021/08/13 13:12:48;;;;;;;8.20;6.97;;;31.00;1.00;;;;;;5051431;28;20435;-68
2021/08/13 13:15:27;;;;;;;8.60;7.40;;;30.90;1.00;;;;;;5065972;28;20471;-68
2021/08/13 13:18:01;;;;;;;8.27;7.33;;;30.50;1.00;;;;;;5066531;28;20462;-69